Hauptseite
METAR-TAF:

METAR-TAF

Flughäfen :

Shanghai Pudong International Airport

Shanghai-Pudong, China

Breite: 31-07N, Länge: 121-46E, Höhe: 4 m

Beobachtung

Neuester Wetterbericht von vor 30 Minuten, um 15:00 UTC
Wind 4 kt aus Süd
Temperatur 21°C
Luftfeuchtigkeit 94%
Luftdruck 1010 hPa
Sichtweite 10 km oder mehr
Durchbrochene Bewölkung in der Höhe von 800 ft
Geschlossene Wolkendecke in der Höhe von 3300 ft

METAR: ZSPD 271500Z 17002MPS 9999 BKN008 OVC033 21/20 Q1010 NOSIG

Zeit: 23:30 (15:30 UTC)

Prognose

Neuester Wetterbericht von vor 6 Stunden und 9 Minuten, um 09:21 UTC
Gültige Prognose vom 27 um 12 UTC bis 28 um 12 UTC
Wind 8 kt aus Nord/Nordost
Sichtweite: 5000 m
Durchbrochene Bewölkung in der Höhe von 1100 ft
feuchter Dunst
Übergehend zu
vom 27 um 13 UTC bis 27 um 14 UTC
Wind 8 kt aus Ost/Südost

TAF: ZSPD 270921Z 2712/2812 03004MPS 5000 BR BKN011 TX26/2806Z TN17/2721Z BECMG 2713/2714 12004MPS

Wetterbeobachtungen und Prognosen von mehr als 4000 Flughäfen (METAR und TAF Bericht).

Die verfügbaren Stationen werden durch gelbe und rote Markierungen auf der Karte dargestellt.

Führen Sie die Maus auf sie, um den Namen der Station zu sehen.

Darauf klicken, um die Beobachtung von Wetterbeobachtungen und Prognosen zu sehen.

Um die Karte zu ändern : klicken Sie auf den grünen Tasten mit einem schwarzen Kreuz Zum Vergrößern, auf den grünen Button mit einem Gedankenstrich zu verkleinern, oder auf die grünen Pfeile für benachbarte Karten.


METAR-TAF: